sensor_id;sensor_type;location;lat;lon;timestamp;P1;durP1;ratioP1;P2;durP2;ratioP2
71108;SDS011;59614;51.012;-1.648;2023-02-20T00:00:53;5.38;;;3.15;;
71108;SDS011;59614;51.012;-1.648;2023-02-20T00:03:19;6.57;;;2.90;;
71108;SDS011;59614;51.012;-1.648;2023-02-20T00:05:45;4.82;;;2.63;;
71108;SDS011;59614;51.012;-1.648;2023-02-20T00:08:10;7.43;;;3.20;;
71108;SDS011;59614;51.012;-1.648;2023-02-20T00:10:36;4.35;;;2.83;;
71108;SDS011;59614;51.012;-1.648;2023-02-20T00:13:01;5.28;;;3.30;;
71108;SDS011;59614;51.012;-1.648;2023-02-20T00:15:27;5.13;;;2.90;;
71108;SDS011;59614;51.012;-1.648;2023-02-20T00:17:52;4.68;;;3.05;;
71108;SDS011;59614;51.012;-1.648;2023-02-20T00:20:21;4.63;;;2.55;;
71108;SDS011;59614;51.012;-1.648;2023-02-20T00:22:48;3.90;;;2.60;;
71108;SDS011;59614;51.012;-1.648;2023-02-20T00:25:16;4.68;;;2.65;;
71108;SDS011;59614;51.012;-1.648;2023-02-20T00:27:42;4.30;;;2.58;;
71108;SDS011;59614;51.012;-1.648;2023-02-20T00:30:15;5.75;;;2.88;;
71108;SDS011;59614;51.012;-1.648;2023-02-20T00:32:47;4.07;;;2.50;;
71108;SDS011;59614;51.012;-1.648;2023-02-20T00:35:14;6.47;;;2.80;;
71108;SDS011;59614;51.012;-1.648;2023-02-20T00:37:39;5.50;;;3.08;;
71108;SDS011;59614;51.012;-1.648;2023-02-20T00:40:05;5.45;;;3.05;;
71108;SDS011;59614;51.012;-1.648;2023-02-20T00:42:31;8.30;;;3.22;;
71108;SDS011;59614;51.012;-1.648;2023-02-20T00:45:00;6.88;;;2.78;;
71108;SDS011;59614;51.012;-1.648;2023-02-20T00:49:50;3.33;;;2.38;;
71108;SDS011;59614;51.012;-1.648;2023-02-20T00:52:16;4.25;;;2.35;;
71108;SDS011;59614;51.012;-1.648;2023-02-20T00:54:41;4.95;;;2.40;;
71108;SDS011;59614;51.012;-1.648;2023-02-20T00:57:07;4.60;;;2.60;;
71108;SDS011;59614;51.012;-1.648;2023-02-20T00:59:32;3.35;;;2.42;;
71108;SDS011;59614;51.012;-1.648;2023-02-20T01:01:58;5.40;;;2.97;;
71108;SDS011;59614;51.012;-1.648;2023-02-20T01:04:23;8.32;;;3.08;;
71108;SDS011;59614;51.012;-1.648;2023-02-20T01:06:49;7.45;;;2.60;;
71108;SDS011;59614;51.012;-1.648;2023-02-20T01:09:14;5.82;;;2.80;;
71108;SDS011;59614;51.012;-1.648;2023-02-20T01:11:40;6.78;;;2.72;;
71108;SDS011;59614;51.012;-1.648;2023-02-20T01:14:07;3.63;;;2.40;;
71108;SDS011;59614;51.012;-1.648;2023-02-20T01:16:33;4.38;;;2.35;;
71108;SDS011;59614;51.012;-1.648;2023-02-20T01:18:58;6.07;;;2.63;;
71108;SDS011;59614;51.012;-1.648;2023-02-20T01:21:23;5.38;;;2.35;;
71108;SDS011;59614;51.012;-1.648;2023-02-20T01:23:49;5.22;;;2.30;;
71108;SDS011;59614;51.012;-1.648;2023-02-20T01:26:14;6.72;;;2.40;;
71108;SDS011;59614;51.012;-1.648;2023-02-20T01:28:42;3.88;;;2.40;;
71108;SDS011;59614;51.012;-1.648;2023-02-20T01:31:09;4.25;;;2.38;;
71108;SDS011;59614;51.012;-1.648;2023-02-20T01:33:34;3.40;;;2.10;;
71108;SDS011;59614;51.012;-1.648;2023-02-20T01:36:00;3.42;;;2.13;;
71108;SDS011;59614;51.012;-1.648;2023-02-20T01:38:25;4.90;;;2.85;;
71108;SDS011;59614;51.012;-1.648;2023-02-20T01:40:51;4.10;;;2.47;;
71108;SDS011;59614;51.012;-1.648;2023-02-20T01:43:16;3.80;;;2.17;;
71108;SDS011;59614;51.012;-1.648;2023-02-20T01:45:42;9.65;;;2.30;;
71108;SDS011;59614;51.012;-1.648;2023-02-20T01:48:24;3.42;;;2.05;;
71108;SDS011;59614;51.012;-1.648;2023-02-20T01:50:57;4.10;;;2.20;;
71108;SDS011;59614;51.012;-1.648;2023-02-20T01:53:24;3.80;;;2.38;;
71108;SDS011;59614;51.012;-1.648;2023-02-20T01:56:01;5.75;;;2.30;;
71108;SDS011;59614;51.012;-1.648;2023-02-20T01:58:36;5.43;;;2.40;;
71108;SDS011;59614;51.012;-1.648;2023-02-20T02:01:08;3.47;;;2.40;;
71108;SDS011;59614;51.012;-1.648;2023-02-20T02:03:36;4.43;;;2.67;;
71108;SDS011;59614;51.012;-1.648;2023-02-20T02:06:08;5.53;;;2.60;;
71108;SDS011;59614;51.012;-1.648;2023-02-20T02:08:36;6.18;;;2.42;;
71108;SDS011;59614;51.012;-1.648;2023-02-20T02:11:11;5.20;;;2.70;;
71108;SDS011;59614;51.012;-1.648;2023-02-20T02:13:39;6.85;;;2.80;;
71108;SDS011;59614;51.012;-1.648;2023-02-20T02:28:01;5.07;;;2.67;;
71108;SDS011;59614;51.012;-1.648;2023-02-20T02:46:31;5.03;;;2.67;;
71108;SDS011;59614;51.012;-1.648;2023-02-20T02:49:02;7.55;;;2.70;;
71108;SDS011;59614;51.012;-1.648;2023-02-20T02:51:32;4.32;;;2.72;;
71108;SDS011;59614;51.012;-1.648;2023-02-20T02:56:39;5.25;;;2.88;;
71108;SDS011;59614;51.012;-1.648;2023-02-20T02:59:11;4.18;;;2.80;;
71108;SDS011;59614;51.012;-1.648;2023-02-20T03:01:44;8.38;;;3.00;;
71108;SDS011;59614;51.012;-1.648;2023-02-20T03:04:15;5.93;;;3.05;;
71108;SDS011;59614;51.012;-1.648;2023-02-20T03:06:47;5.25;;;3.20;;
71108;SDS011;59614;51.012;-1.648;2023-02-20T03:09:21;4.80;;;2.67;;
71108;SDS011;59614;51.012;-1.648;2023-02-20T03:11:54;4.80;;;2.85;;
71108;SDS011;59614;51.012;-1.648;2023-02-20T03:14:27;6.70;;;2.70;;
71108;SDS011;59614;51.012;-1.648;2023-02-20T03:17:34;7.35;;;3.13;;
71108;SDS011;59614;51.012;-1.648;2023-02-20T03:20:07;4.53;;;2.80;;
71108;SDS011;59614;51.012;-1.648;2023-02-20T03:22:38;4.38;;;2.70;;
71108;SDS011;59614;51.012;-1.648;2023-02-20T03:25:37;5.60;;;2.67;;
71108;SDS011;59614;51.012;-1.648;2023-02-20T03:28:09;5.85;;;3.10;;
71108;SDS011;59614;51.012;-1.648;2023-02-20T03:30:54;7.15;;;3.30;;
71108;SDS011;59614;51.012;-1.648;2023-02-20T03:33:26;5.13;;;2.90;;
71108;SDS011;59614;51.012;-1.648;2023-02-20T03:36:21;6.60;;;3.00;;
71108;SDS011;59614;51.012;-1.648;2023-02-20T03:39:19;4.82;;;2.70;;
71108;SDS011;59614;51.012;-1.648;2023-02-20T03:42:08;4.68;;;2.80;;
71108;SDS011;59614;51.012;-1.648;2023-02-20T03:44:54;4.97;;;2.70;;
71108;SDS011;59614;51.012;-1.648;2023-02-20T03:47:21;4.57;;;2.70;;
71108;SDS011;59614;51.012;-1.648;2023-02-20T03:49:50;4.18;;;2.65;;
71108;SDS011;59614;51.012;-1.648;2023-02-20T03:52:18;5.97;;;2.85;;
71108;SDS011;59614;51.012;-1.648;2023-02-20T03:54:44;4.43;;;2.85;;
71108;SDS011;59614;51.012;-1.648;2023-02-20T03:57:17;5.13;;;2.70;;
71108;SDS011;59614;51.012;-1.648;2023-02-20T03:59:52;4.57;;;2.80;;
71108;SDS011;59614;51.012;-1.648;2023-02-20T04:02:21;4.65;;;2.47;;
71108;SDS011;59614;51.012;-1.648;2023-02-20T04:05:13;5.22;;;2.47;;
71108;SDS011;59614;51.012;-1.648;2023-02-20T04:07:52;4.60;;;2.60;;
71108;SDS011;59614;51.012;-1.648;2023-02-20T04:10:24;6.88;;;2.67;;
71108;SDS011;59614;51.012;-1.648;2023-02-20T04:12:54;4.05;;;2.63;;
71108;SDS011;59614;51.012;-1.648;2023-02-20T04:15:21;4.85;;;2.38;;
71108;SDS011;59614;51.012;-1.648;2023-02-20T04:17:55;3.90;;;2.28;;
71108;SDS011;59614;51.012;-1.648;2023-02-20T04:20:25;4.30;;;2.50;;
71108;SDS011;59614;51.012;-1.648;2023-02-20T04:22:51;3.33;;;2.33;;
71108;SDS011;59614;51.012;-1.648;2023-02-20T04:25:24;3.80;;;2.40;;
71108;SDS011;59614;51.012;-1.648;2023-02-20T04:28:08;4.65;;;2.35;;
71108;SDS011;59614;51.012;-1.648;2023-02-20T04:30:35;5.22;;;2.72;;
71108;SDS011;59614;51.012;-1.648;2023-02-20T04:33:00;4.80;;;2.70;;
71108;SDS011;59614;51.012;-1.648;2023-02-20T04:35:26;4.53;;;2.45;;
71108;SDS011;59614;51.012;-1.648;2023-02-20T04:37:51;4.72;;;2.40;;
71108;SDS011;59614;51.012;-1.648;2023-02-20T04:40:17;3.97;;;2.50;;
71108;SDS011;59614;51.012;-1.648;2023-02-20T04:42:46;4.45;;;2.58;;
71108;SDS011;59614;51.012;-1.648;2023-02-20T04:45:11;4.53;;;2.50;;
71108;SDS011;59614;51.012;-1.648;2023-02-20T04:47:36;5.03;;;2.40;;
71108;SDS011;59614;51.012;-1.648;2023-02-20T04:50:03;3.53;;;2.22;;
71108;SDS011;59614;51.012;-1.648;2023-02-20T04:52:28;4.95;;;2.60;;
71108;SDS011;59614;51.012;-1.648;2023-02-20T04:54:54;3.40;;;2.45;;
71108;SDS011;59614;51.012;-1.648;2023-02-20T04:57:20;4.88;;;2.70;;
71108;SDS011;59614;51.012;-1.648;2023-02-20T04:59:46;4.50;;;2.53;;
71108;SDS011;59614;51.012;-1.648;2023-02-20T05:02:12;5.68;;;2.53;;
71108;SDS011;59614;51.012;-1.648;2023-02-20T05:04:37;3.47;;;2.50;;
71108;SDS011;59614;51.012;-1.648;2023-02-20T05:07:04;4.38;;;2.45;;
71108;SDS011;59614;51.012;-1.648;2023-02-20T05:09:29;3.85;;;2.58;;
71108;SDS011;59614;51.012;-1.648;2023-02-20T05:11:56;3.70;;;2.65;;
71108;SDS011;59614;51.012;-1.648;2023-02-20T05:14:21;4.32;;;2.50;;
71108;SDS011;59614;51.012;-1.648;2023-02-20T05:16:47;4.10;;;2.60;;
71108;SDS011;59614;51.012;-1.648;2023-02-20T05:19:15;3.35;;;2.45;;
71108;SDS011;59614;51.012;-1.648;2023-02-20T05:21:41;4.15;;;2.60;;
71108;SDS011;59614;51.012;-1.648;2023-02-20T05:24:26;4.22;;;2.50;;
71108;SDS011;59614;51.012;-1.648;2023-02-20T05:26:52;5.45;;;2.95;;
71108;SDS011;59614;51.012;-1.648;2023-02-20T05:29:18;3.75;;;2.33;;
71108;SDS011;59614;51.012;-1.648;2023-02-20T05:31:44;3.90;;;2.78;;
71108;SDS011;59614;51.012;-1.648;2023-02-20T05:34:09;4.25;;;2.70;;
71108;SDS011;59614;51.012;-1.648;2023-02-20T05:36:35;5.03;;;2.45;;
71108;SDS011;59614;51.012;-1.648;2023-02-20T05:39:00;5.07;;;3.58;;
71108;SDS011;59614;51.012;-1.648;2023-02-20T05:41:26;4.65;;;2.65;;
71108;SDS011;59614;51.012;-1.648;2023-02-20T05:43:52;3.85;;;2.40;;
71108;SDS011;59614;51.012;-1.648;2023-02-20T05:46:21;3.65;;;2.50;;
71108;SDS011;59614;51.012;-1.648;2023-02-20T05:48:51;4.85;;;2.50;;
71108;SDS011;59614;51.012;-1.648;2023-02-20T05:51:23;3.88;;;2.38;;
71108;SDS011;59614;51.012;-1.648;2023-02-20T05:53:51;4.13;;;2.55;;
71108;SDS011;59614;51.012;-1.648;2023-02-20T05:56:17;4.97;;;2.47;;
71108;SDS011;59614;51.012;-1.648;2023-02-20T05:58:44;3.92;;;2.45;;
71108;SDS011;59614;51.012;-1.648;2023-02-20T06:01:17;4.38;;;2.40;;
71108;SDS011;59614;51.012;-1.648;2023-02-20T06:03:44;4.75;;;2.42;;
71108;SDS011;59614;51.012;-1.648;2023-02-20T06:06:09;4.97;;;2.70;;
71108;SDS011;59614;51.012;-1.648;2023-02-20T06:08:35;4.93;;;3.00;;
71108;SDS011;59614;51.012;-1.648;2023-02-20T06:11:00;7.28;;;3.08;;
71108;SDS011;59614;51.012;-1.648;2023-02-20T06:13:26;6.53;;;2.88;;
71108;SDS011;59614;51.012;-1.648;2023-02-20T06:15:51;5.20;;;2.83;;
71108;SDS011;59614;51.012;-1.648;2023-02-20T06:18:16;5.82;;;3.08;;
71108;SDS011;59614;51.012;-1.648;2023-02-20T06:20:42;5.93;;;2.97;;
71108;SDS011;59614;51.012;-1.648;2023-02-20T06:23:07;9.35;;;3.42;;
71108;SDS011;59614;51.012;-1.648;2023-02-20T06:25:33;8.55;;;4.63;;
71108;SDS011;59614;51.012;-1.648;2023-02-20T06:27:58;11.55;;;4.13;;
71108;SDS011;59614;51.012;-1.648;2023-02-20T06:30:24;7.00;;;4.25;;
71108;SDS011;59614;51.012;-1.648;2023-02-20T06:32:49;7.38;;;3.45;;
71108;SDS011;59614;51.012;-1.648;2023-02-20T06:35:15;8.30;;;3.22;;
71108;SDS011;59614;51.012;-1.648;2023-02-20T06:37:40;5.88;;;3.60;;
71108;SDS011;59614;51.012;-1.648;2023-02-20T06:40:06;5.78;;;3.80;;
71108;SDS011;59614;51.012;-1.648;2023-02-20T06:42:31;5.93;;;3.88;;
71108;SDS011;59614;51.012;-1.648;2023-02-20T06:44:57;7.90;;;4.15;;
71108;SDS011;59614;51.012;-1.648;2023-02-20T06:47:22;8.27;;;4.20;;
71108;SDS011;59614;51.012;-1.648;2023-02-20T06:49:48;7.57;;;4.25;;
71108;SDS011;59614;51.012;-1.648;2023-02-20T06:52:13;8.52;;;4.55;;
71108;SDS011;59614;51.012;-1.648;2023-02-20T06:54:39;9.65;;;4.30;;
71108;SDS011;59614;51.012;-1.648;2023-02-20T06:57:04;11.55;;;4.90;;
71108;SDS011;59614;51.012;-1.648;2023-02-20T06:59:30;9.30;;;6.03;;
71108;SDS011;59614;51.012;-1.648;2023-02-20T07:01:56;9.85;;;5.97;;
71108;SDS011;59614;51.012;-1.648;2023-02-20T07:04:23;8.32;;;5.80;;
71108;SDS011;59614;51.012;-1.648;2023-02-20T07:06:53;10.45;;;5.70;;
71108;SDS011;59614;51.012;-1.648;2023-02-20T07:09:18;10.88;;;5.05;;
71108;SDS011;59614;51.012;-1.648;2023-02-20T07:11:44;7.88;;;4.63;;
71108;SDS011;59614;51.012;-1.648;2023-02-20T07:14:10;8.30;;;4.30;;
71108;SDS011;59614;51.012;-1.648;2023-02-20T07:16:37;9.10;;;4.90;;
71108;SDS011;59614;51.012;-1.648;2023-02-20T07:19:03;9.07;;;4.57;;
71108;SDS011;59614;51.012;-1.648;2023-02-20T07:21:28;8.07;;;4.50;;
71108;SDS011;59614;51.012;-1.648;2023-02-20T07:23:54;7.80;;;4.90;;
71108;SDS011;59614;51.012;-1.648;2023-02-20T07:26:20;8.63;;;4.43;;
71108;SDS011;59614;51.012;-1.648;2023-02-20T07:28:48;7.80;;;5.07;;
71108;SDS011;59614;51.012;-1.648;2023-02-20T07:31:13;6.75;;;4.45;;
71108;SDS011;59614;51.012;-1.648;2023-02-20T07:33:39;10.68;;;4.70;;
71108;SDS011;59614;51.012;-1.648;2023-02-20T07:36:07;8.23;;;4.82;;
71108;SDS011;59614;51.012;-1.648;2023-02-20T07:38:33;8.30;;;4.40;;
71108;SDS011;59614;51.012;-1.648;2023-02-20T07:40:58;6.65;;;4.85;;
71108;SDS011;59614;51.012;-1.648;2023-02-20T07:43:23;11.65;;;4.95;;
71108;SDS011;59614;51.012;-1.648;2023-02-20T07:45:49;9.02;;;5.03;;
71108;SDS011;59614;51.012;-1.648;2023-02-20T07:48:14;12.45;;;5.22;;
71108;SDS011;59614;51.012;-1.648;2023-02-20T07:50:40;7.93;;;4.93;;
71108;SDS011;59614;51.012;-1.648;2023-02-20T07:53:05;12.40;;;4.72;;
71108;SDS011;59614;51.012;-1.648;2023-02-20T07:55:30;8.80;;;5.20;;
71108;SDS011;59614;51.012;-1.648;2023-02-20T07:57:56;11.35;;;4.97;;
71108;SDS011;59614;51.012;-1.648;2023-02-20T08:00:22;9.13;;;4.45;;
71108;SDS011;59614;51.012;-1.648;2023-02-20T08:02:49;9.85;;;4.55;;
71108;SDS011;59614;51.012;-1.648;2023-02-20T08:05:14;9.13;;;4.57;;
71108;SDS011;59614;51.012;-1.648;2023-02-20T08:07:44;7.68;;;4.25;;
71108;SDS011;59614;51.012;-1.648;2023-02-20T08:10:10;7.10;;;4.03;;
71108;SDS011;59614;51.012;-1.648;2023-02-20T08:12:36;5.70;;;3.75;;
71108;SDS011;59614;51.012;-1.648;2023-02-20T08:15:02;6.10;;;3.65;;
71108;SDS011;59614;51.012;-1.648;2023-02-20T08:17:28;6.38;;;3.58;;
71108;SDS011;59614;51.012;-1.648;2023-02-20T08:19:54;8.75;;;3.90;;
71108;SDS011;59614;51.012;-1.648;2023-02-20T08:22:19;8.73;;;3.75;;
71108;SDS011;59614;51.012;-1.648;2023-02-20T08:24:45;9.10;;;3.83;;
71108;SDS011;59614;51.012;-1.648;2023-02-20T08:27:10;6.93;;;3.50;;
71108;SDS011;59614;51.012;-1.648;2023-02-20T08:29:36;6.50;;;3.30;;
71108;SDS011;59614;51.012;-1.648;2023-02-20T08:32:01;5.78;;;3.50;;
71108;SDS011;59614;51.012;-1.648;2023-02-20T08:34:26;7.20;;;3.17;;
71108;SDS011;59614;51.012;-1.648;2023-02-20T08:36:52;5.63;;;3.40;;
71108;SDS011;59614;51.012;-1.648;2023-02-20T08:39:17;5.30;;;3.10;;
71108;SDS011;59614;51.012;-1.648;2023-02-20T08:41:43;5.63;;;3.20;;
71108;SDS011;59614;51.012;-1.648;2023-02-20T08:44:09;7.05;;;3.70;;
71108;SDS011;59614;51.012;-1.648;2023-02-20T08:46:35;4.95;;;3.20;;
71108;SDS011;59614;51.012;-1.648;2023-02-20T08:49:00;6.63;;;3.47;;
71108;SDS011;59614;51.012;-1.648;2023-02-20T08:51:26;9.68;;;3.75;;
71108;SDS011;59614;51.012;-1.648;2023-02-20T08:53:52;7.45;;;3.40;;
71108;SDS011;59614;51.012;-1.648;2023-02-20T08:56:18;6.65;;;3.00;;
71108;SDS011;59614;51.012;-1.648;2023-02-20T08:58:44;6.65;;;3.47;;
71108;SDS011;59614;51.012;-1.648;2023-02-20T09:01:10;7.45;;;3.45;;
71108;SDS011;59614;51.012;-1.648;2023-02-20T09:03:35;5.88;;;3.22;;
71108;SDS011;59614;51.012;-1.648;2023-02-20T09:06:04;9.32;;;3.30;;
71108;SDS011;59614;51.012;-1.648;2023-02-20T09:08:30;13.15;;;3.80;;
71108;SDS011;59614;51.012;-1.648;2023-02-20T09:10:55;7.82;;;3.47;;
71108;SDS011;59614;51.012;-1.648;2023-02-20T09:13:20;5.50;;;3.30;;
71108;SDS011;59614;51.012;-1.648;2023-02-20T09:15:46;8.52;;;3.65;;
71108;SDS011;59614;51.012;-1.648;2023-02-20T11:40:39;5.78;;;2.10;;
71108;SDS011;59614;51.012;-1.648;2023-02-20T11:46:15;6.38;;;2.30;;
71108;SDS011;59614;51.012;-1.648;2023-02-20T11:54:18;3.58;;;2.00;;
71108;SDS011;59614;51.012;-1.648;2023-02-20T12:05:04;3.60;;;1.70;;
71108;SDS011;59614;51.012;-1.648;2023-02-20T12:07:57;5.60;;;1.65;;
71108;SDS011;59614;51.012;-1.648;2023-02-20T12:10:57;10.52;;;2.00;;
71108;SDS011;59614;51.012;-1.648;2023-02-20T12:13:17;2.53;;;1.50;;
71108;SDS011;59614;51.012;-1.648;2023-02-20T12:15:44;3.92;;;1.67;;
71108;SDS011;59614;51.012;-1.648;2023-02-20T12:18:44;7.75;;;2.45;;
71108;SDS011;59614;51.012;-1.648;2023-02-20T12:24:09;3.70;;;2.30;;
71108;SDS011;59614;51.012;-1.648;2023-02-20T12:26:56;6.82;;;1.75;;
71108;SDS011;59614;51.012;-1.648;2023-02-20T12:45:37;9.18;;;2.30;;
71108;SDS011;59614;51.012;-1.648;2023-02-20T12:48:11;2.80;;;1.80;;
71108;SDS011;59614;51.012;-1.648;2023-02-20T13:01:19;2.75;;;1.50;;
71108;SDS011;59614;51.012;-1.648;2023-02-20T13:03:48;4.47;;;2.15;;
71108;SDS011;59614;51.012;-1.648;2023-02-20T13:06:21;5.20;;;2.42;;
71108;SDS011;59614;51.012;-1.648;2023-02-20T13:08:54;36.30;;;18.83;;
71108;SDS011;59614;51.012;-1.648;2023-02-20T13:11:28;21.02;;;11.30;;
71108;SDS011;59614;51.012;-1.648;2023-02-20T13:19:10;16.92;;;11.55;;
71108;SDS011;59614;51.012;-1.648;2023-02-20T13:21:45;8.95;;;4.97;;
71108;SDS011;59614;51.012;-1.648;2023-02-20T13:24:25;3.78;;;1.92;;
71108;SDS011;59614;51.012;-1.648;2023-02-20T13:26:52;12.00;;;4.35;;
71108;SDS011;59614;51.012;-1.648;2023-02-20T13:29:21;6.93;;;3.22;;
71108;SDS011;59614;51.012;-1.648;2023-02-20T13:31:56;2.58;;;1.70;;
71108;SDS011;59614;51.012;-1.648;2023-02-20T13:36:58;6.10;;;2.33;;
71108;SDS011;59614;51.012;-1.648;2023-02-20T13:39:25;7.70;;;2.20;;
71108;SDS011;59614;51.012;-1.648;2023-02-20T13:46:57;4.88;;;1.50;;
71108;SDS011;59614;51.012;-1.648;2023-02-20T13:54:53;4.93;;;1.70;;
71108;SDS011;59614;51.012;-1.648;2023-02-20T13:57:24;11.43;;;1.38;;
71108;SDS011;59614;51.012;-1.648;2023-02-20T13:59:53;1.48;;;1.33;;
71108;SDS011;59614;51.012;-1.648;2023-02-20T14:02:21;7.60;;;1.30;;
71108;SDS011;59614;51.012;-1.648;2023-02-20T14:05:01;2.20;;;1.50;;
71108;SDS011;59614;51.012;-1.648;2023-02-20T14:07:38;1.58;;;1.23;;
71108;SDS011;59614;51.012;-1.648;2023-02-20T14:10:17;2.67;;;1.38;;
71108;SDS011;59614;51.012;-1.648;2023-02-20T14:13:31;3.88;;;1.80;;
71108;SDS011;59614;51.012;-1.648;2023-02-20T14:15:50;5.70;;;3.33;;
71108;SDS011;59614;51.012;-1.648;2023-02-20T14:18:28;8.73;;;2.85;;
71108;SDS011;59614;51.012;-1.648;2023-02-20T14:20:57;2.22;;;1.65;;
71108;SDS011;59614;51.012;-1.648;2023-02-20T14:23:29;1.77;;;1.50;;
71108;SDS011;59614;51.012;-1.648;2023-02-20T14:25:56;4.28;;;2.20;;
71108;SDS011;59614;51.012;-1.648;2023-02-20T14:28:23;6.80;;;2.35;;
71108;SDS011;59614;51.012;-1.648;2023-02-20T14:31:03;2.83;;;1.60;;
71108;SDS011;59614;51.012;-1.648;2023-02-20T14:33:45;5.32;;;1.42;;
71108;SDS011;59614;51.012;-1.648;2023-02-20T14:41:35;2.58;;;1.50;;
71108;SDS011;59614;51.012;-1.648;2023-02-20T14:44:02;4.72;;;1.85;;
71108;SDS011;59614;51.012;-1.648;2023-02-20T14:46:31;2.00;;;1.38;;
71108;SDS011;59614;51.012;-1.648;2023-02-20T14:49:12;3.20;;;1.50;;
71108;SDS011;59614;51.012;-1.648;2023-02-20T14:51:47;5.10;;;1.80;;
71108;SDS011;59614;51.012;-1.648;2023-02-20T14:54:23;3.03;;;1.52;;
71108;SDS011;59614;51.012;-1.648;2023-02-20T14:56:50;3.47;;;1.70;;
71108;SDS011;59614;51.012;-1.648;2023-02-20T14:59:32;3.85;;;2.00;;
71108;SDS011;59614;51.012;-1.648;2023-02-20T15:02:00;5.72;;;2.70;;
71108;SDS011;59614;51.012;-1.648;2023-02-20T15:04:45;3.63;;;1.73;;
71108;SDS011;59614;51.012;-1.648;2023-02-20T15:07:13;5.78;;;1.80;;
71108;SDS011;59614;51.012;-1.648;2023-02-20T15:09:41;3.72;;;2.40;;
71108;SDS011;59614;51.012;-1.648;2023-02-20T15:12:25;9.18;;;3.53;;
71108;SDS011;59614;51.012;-1.648;2023-02-20T15:17:34;7.45;;;2.42;;
71108;SDS011;59614;51.012;-1.648;2023-02-20T15:20:15;8.20;;;2.60;;
71108;SDS011;59614;51.012;-1.648;2023-02-20T15:23:41;7.78;;;2.67;;
71108;SDS011;59614;51.012;-1.648;2023-02-20T15:25:42;5.80;;;2.40;;
71108;SDS011;59614;51.012;-1.648;2023-02-20T15:28:10;4.80;;;2.25;;
71108;SDS011;59614;51.012;-1.648;2023-02-20T15:33:26;5.53;;;2.10;;
71108;SDS011;59614;51.012;-1.648;2023-02-20T15:35:53;6.95;;;2.10;;
71108;SDS011;59614;51.012;-1.648;2023-02-20T15:38:19;4.90;;;1.90;;
71108;SDS011;59614;51.012;-1.648;2023-02-20T15:40:44;2.85;;;1.92;;
71108;SDS011;59614;51.012;-1.648;2023-02-20T15:43:12;5.53;;;1.90;;
71108;SDS011;59614;51.012;-1.648;2023-02-20T15:45:38;4.68;;;1.83;;
71108;SDS011;59614;51.012;-1.648;2023-02-20T15:48:05;4.70;;;2.22;;
71108;SDS011;59614;51.012;-1.648;2023-02-20T15:50:32;15.95;;;2.67;;
71108;SDS011;59614;51.012;-1.648;2023-02-20T15:52:57;4.65;;;2.00;;
71108;SDS011;59614;51.012;-1.648;2023-02-20T15:55:26;5.10;;;2.15;;
71108;SDS011;59614;51.012;-1.648;2023-02-20T15:57:54;2.13;;;1.70;;
71108;SDS011;59614;51.012;-1.648;2023-02-20T16:00:23;3.42;;;2.10;;
71108;SDS011;59614;51.012;-1.648;2023-02-20T16:02:57;5.97;;;2.00;;
71108;SDS011;59614;51.012;-1.648;2023-02-20T16:05:26;7.05;;;2.10;;
71108;SDS011;59614;51.012;-1.648;2023-02-20T16:07:52;6.05;;;2.25;;
71108;SDS011;59614;51.012;-1.648;2023-02-20T16:10:19;2.90;;;1.90;;
71108;SDS011;59614;51.012;-1.648;2023-02-20T16:12:49;5.28;;;2.13;;
71108;SDS011;59614;51.012;-1.648;2023-02-20T16:15:18;7.75;;;2.35;;
71108;SDS011;59614;51.012;-1.648;2023-02-20T16:17:46;6.05;;;2.35;;
71108;SDS011;59614;51.012;-1.648;2023-02-20T16:20:31;5.03;;;2.42;;
71108;SDS011;59614;51.012;-1.648;2023-02-20T16:22:56;6.43;;;2.47;;
71108;SDS011;59614;51.012;-1.648;2023-02-20T16:25:22;6.93;;;2.75;;
71108;SDS011;59614;51.012;-1.648;2023-02-20T16:27:50;3.60;;;2.20;;
71108;SDS011;59614;51.012;-1.648;2023-02-20T16:30:22;8.48;;;2.92;;
71108;SDS011;59614;51.012;-1.648;2023-02-20T16:32:53;4.75;;;2.28;;
71108;SDS011;59614;51.012;-1.648;2023-02-20T16:35:19;4.32;;;2.60;;
71108;SDS011;59614;51.012;-1.648;2023-02-20T16:37:44;5.05;;;2.30;;
71108;SDS011;59614;51.012;-1.648;2023-02-20T16:40:11;5.80;;;2.65;;
71108;SDS011;59614;51.012;-1.648;2023-02-20T16:45:10;6.38;;;2.53;;
71108;SDS011;59614;51.012;-1.648;2023-02-20T16:47:38;6.47;;;3.22;;
71108;SDS011;59614;51.012;-1.648;2023-02-20T16:50:04;11.52;;;4.25;;
71108;SDS011;59614;51.012;-1.648;2023-02-20T16:52:37;8.20;;;3.90;;
71108;SDS011;59614;51.012;-1.648;2023-02-20T16:55:05;12.85;;;3.22;;
71108;SDS011;59614;51.012;-1.648;2023-02-20T16:57:52;15.07;;;3.08;;
71108;SDS011;59614;51.012;-1.648;2023-02-20T17:00:19;5.35;;;3.00;;
71108;SDS011;59614;51.012;-1.648;2023-02-20T17:02:47;17.73;;;3.00;;
71108;SDS011;59614;51.012;-1.648;2023-02-20T17:05:13;53.97;;;5.72;;
71108;SDS011;59614;51.012;-1.648;2023-02-20T17:07:39;7.80;;;2.85;;
71108;SDS011;59614;51.012;-1.648;2023-02-20T17:10:05;9.60;;;4.60;;
71108;SDS011;59614;51.012;-1.648;2023-02-20T17:12:32;8.38;;;4.15;;
71108;SDS011;59614;51.012;-1.648;2023-02-20T17:14:58;8.38;;;4.78;;
71108;SDS011;59614;51.012;-1.648;2023-02-20T17:17:25;11.40;;;4.35;;
71108;SDS011;59614;51.012;-1.648;2023-02-20T17:19:51;8.15;;;3.65;;
71108;SDS011;59614;51.012;-1.648;2023-02-20T17:22:19;5.53;;;3.03;;
71108;SDS011;59614;51.012;-1.648;2023-02-20T17:24:46;8.68;;;4.28;;
71108;SDS011;59614;51.012;-1.648;2023-02-20T17:27:12;8.60;;;4.05;;
71108;SDS011;59614;51.012;-1.648;2023-02-20T17:29:40;10.27;;;4.60;;
71108;SDS011;59614;51.012;-1.648;2023-02-20T17:32:06;6.80;;;4.10;;
71108;SDS011;59614;51.012;-1.648;2023-02-20T17:34:32;5.93;;;3.70;;
71108;SDS011;59614;51.012;-1.648;2023-02-20T17:36:57;7.70;;;3.80;;
71108;SDS011;59614;51.012;-1.648;2023-02-20T17:39:23;10.25;;;4.13;;
71108;SDS011;59614;51.012;-1.648;2023-02-20T17:41:50;7.15;;;4.00;;
71108;SDS011;59614;51.012;-1.648;2023-02-20T17:46:44;9.38;;;4.93;;
71108;SDS011;59614;51.012;-1.648;2023-02-20T17:49:12;9.40;;;5.28;;
71108;SDS011;59614;51.012;-1.648;2023-02-20T17:51:40;7.38;;;4.78;;
71108;SDS011;59614;51.012;-1.648;2023-02-20T17:54:06;7.93;;;4.60;;
71108;SDS011;59614;51.012;-1.648;2023-02-20T17:56:31;9.23;;;5.88;;
71108;SDS011;59614;51.012;-1.648;2023-02-20T17:58:56;9.82;;;5.30;;
71108;SDS011;59614;51.012;-1.648;2023-02-20T18:01:22;10.90;;;6.70;;
71108;SDS011;59614;51.012;-1.648;2023-02-20T18:03:51;8.90;;;5.25;;
71108;SDS011;59614;51.012;-1.648;2023-02-20T18:06:18;9.85;;;5.45;;
71108;SDS011;59614;51.012;-1.648;2023-02-20T18:08:46;6.78;;;4.95;;
71108;SDS011;59614;51.012;-1.648;2023-02-20T18:11:12;7.50;;;4.70;;
71108;SDS011;59614;51.012;-1.648;2023-02-20T18:13:38;7.75;;;4.60;;
71108;SDS011;59614;51.012;-1.648;2023-02-20T18:16:03;11.52;;;4.90;;
71108;SDS011;59614;51.012;-1.648;2023-02-20T18:18:29;10.57;;;6.18;;
71108;SDS011;59614;51.012;-1.648;2023-02-20T18:20:54;12.20;;;6.68;;
71108;SDS011;59614;51.012;-1.648;2023-02-20T18:23:20;9.50;;;6.13;;
71108;SDS011;59614;51.012;-1.648;2023-02-20T18:25:45;13.38;;;6.53;;
71108;SDS011;59614;51.012;-1.648;2023-02-20T18:28:10;8.43;;;5.20;;
71108;SDS011;59614;51.012;-1.648;2023-02-20T18:30:36;7.47;;;4.60;;
71108;SDS011;59614;51.012;-1.648;2023-02-20T18:33:02;7.47;;;5.13;;
71108;SDS011;59614;51.012;-1.648;2023-02-20T18:35:27;10.35;;;5.70;;
71108;SDS011;59614;51.012;-1.648;2023-02-20T18:37:53;8.27;;;4.85;;
71108;SDS011;59614;51.012;-1.648;2023-02-20T18:40:18;7.78;;;4.40;;
71108;SDS011;59614;51.012;-1.648;2023-02-20T18:42:44;7.63;;;4.93;;
71108;SDS011;59614;51.012;-1.648;2023-02-20T18:45:10;9.68;;;5.40;;
71108;SDS011;59614;51.012;-1.648;2023-02-20T18:47:35;8.48;;;5.18;;
71108;SDS011;59614;51.012;-1.648;2023-02-20T18:50:01;12.15;;;5.55;;
71108;SDS011;59614;51.012;-1.648;2023-02-20T18:52:26;12.30;;;6.03;;
71108;SDS011;59614;51.012;-1.648;2023-02-20T18:54:52;6.97;;;4.78;;
71108;SDS011;59614;51.012;-1.648;2023-02-20T18:57:17;9.13;;;5.15;;
71108;SDS011;59614;51.012;-1.648;2023-02-20T18:59:43;7.97;;;5.85;;